sensor_id;sensor_type;location;lat;lon;timestamp;P1;durP1;ratioP1;P2;durP2;ratioP2
43088;SDS011;28709;52.030;5.652;2023-12-28T00:00:04;7.28;;;1.90;;
43088;SDS011;28709;52.030;5.652;2023-12-28T00:02:32;5.43;;;2.03;;
43088;SDS011;28709;52.030;5.652;2023-12-28T00:04:58;5.30;;;2.33;;
43088;SDS011;28709;52.030;5.652;2023-12-28T00:07:24;3.30;;;1.92;;
43088;SDS011;28709;52.030;5.652;2023-12-28T00:09:49;4.72;;;1.98;;
43088;SDS011;28709;52.030;5.652;2023-12-28T00:12:15;4.32;;;1.65;;
43088;SDS011;28709;52.030;5.652;2023-12-28T00:14:40;4.30;;;2.05;;
43088;SDS011;28709;52.030;5.652;2023-12-28T00:17:06;6.00;;;2.15;;
43088;SDS011;28709;52.030;5.652;2023-12-28T00:19:32;6.53;;;2.40;;
43088;SDS011;28709;52.030;5.652;2023-12-28T00:21:57;3.20;;;2.03;;
43088;SDS011;28709;52.030;5.652;2023-12-28T00:24:23;5.32;;;1.92;;
43088;SDS011;28709;52.030;5.652;2023-12-28T00:26:48;5.13;;;2.28;;
43088;SDS011;28709;52.030;5.652;2023-12-28T00:29:14;4.05;;;2.20;;
43088;SDS011;28709;52.030;5.652;2023-12-28T00:31:40;4.43;;;2.33;;
43088;SDS011;28709;52.030;5.652;2023-12-28T00:34:05;4.00;;;2.30;;
43088;SDS011;28709;52.030;5.652;2023-12-28T00:36:31;4.15;;;2.28;;
43088;SDS011;28709;52.030;5.652;2023-12-28T00:38:57;3.08;;;1.80;;
43088;SDS011;28709;52.030;5.652;2023-12-28T00:41:23;4.57;;;1.80;;
43088;SDS011;28709;52.030;5.652;2023-12-28T00:43:48;6.05;;;2.13;;
43088;SDS011;28709;52.030;5.652;2023-12-28T00:46:14;5.38;;;2.03;;
43088;SDS011;28709;52.030;5.652;2023-12-28T00:48:39;5.43;;;2.00;;
43088;SDS011;28709;52.030;5.652;2023-12-28T00:51:05;5.32;;;2.15;;
43088;SDS011;28709;52.030;5.652;2023-12-28T00:53:31;5.25;;;2.03;;
43088;SDS011;28709;52.030;5.652;2023-12-28T00:55:56;3.67;;;2.00;;
43088;SDS011;28709;52.030;5.652;2023-12-28T00:58:22;5.45;;;2.20;;
43088;SDS011;28709;52.030;5.652;2023-12-28T01:00:47;3.20;;;1.83;;
43088;SDS011;28709;52.030;5.652;2023-12-28T01:03:13;4.07;;;1.83;;
43088;SDS011;28709;52.030;5.652;2023-12-28T01:05:39;7.45;;;2.45;;
43088;SDS011;28709;52.030;5.652;2023-12-28T01:08:05;7.95;;;1.98;;
43088;SDS011;28709;52.030;5.652;2023-12-28T01:10:30;4.35;;;1.90;;
43088;SDS011;28709;52.030;5.652;2023-12-28T01:12:56;3.15;;;1.75;;
43088;SDS011;28709;52.030;5.652;2023-12-28T01:15:22;4.28;;;1.92;;
43088;SDS011;28709;52.030;5.652;2023-12-28T01:17:47;3.38;;;1.60;;
43088;SDS011;28709;52.030;5.652;2023-12-28T01:20:13;4.68;;;2.03;;
43088;SDS011;28709;52.030;5.652;2023-12-28T01:22:39;6.32;;;2.15;;
43088;SDS011;28709;52.030;5.652;2023-12-28T01:25:04;5.80;;;2.25;;
43088;SDS011;28709;52.030;5.652;2023-12-28T01:27:30;3.25;;;1.77;;
43088;SDS011;28709;52.030;5.652;2023-12-28T01:29:56;6.43;;;2.05;;
43088;SDS011;28709;52.030;5.652;2023-12-28T01:32:21;4.32;;;1.90;;
43088;SDS011;28709;52.030;5.652;2023-12-28T01:34:47;3.28;;;1.95;;
43088;SDS011;28709;52.030;5.652;2023-12-28T01:37:12;10.80;;;2.38;;
43088;SDS011;28709;52.030;5.652;2023-12-28T01:39:38;3.28;;;1.63;;
43088;SDS011;28709;52.030;5.652;2023-12-28T01:42:04;5.00;;;2.00;;
43088;SDS011;28709;52.030;5.652;2023-12-28T01:44:30;5.85;;;1.52;;
43088;SDS011;28709;52.030;5.652;2023-12-28T01:46:56;10.82;;;2.38;;
43088;SDS011;28709;52.030;5.652;2023-12-28T01:49:22;5.90;;;2.05;;
43088;SDS011;28709;52.030;5.652;2023-12-28T01:51:48;4.65;;;2.20;;
43088;SDS011;28709;52.030;5.652;2023-12-28T01:54:15;5.40;;;2.28;;
43088;SDS011;28709;52.030;5.652;2023-12-28T01:56:42;8.23;;;1.92;;
43088;SDS011;28709;52.030;5.652;2023-12-28T01:59:08;6.97;;;2.22;;
43088;SDS011;28709;52.030;5.652;2023-12-28T02:01:34;7.10;;;2.13;;
43088;SDS011;28709;52.030;5.652;2023-12-28T02:04:00;5.00;;;2.10;;
43088;SDS011;28709;52.030;5.652;2023-12-28T02:06:26;3.67;;;1.90;;
43088;SDS011;28709;52.030;5.652;2023-12-28T02:08:52;6.97;;;2.20;;
43088;SDS011;28709;52.030;5.652;2023-12-28T02:11:18;7.13;;;2.35;;
43088;SDS011;28709;52.030;5.652;2023-12-28T02:13:44;4.85;;;2.17;;
43088;SDS011;28709;52.030;5.652;2023-12-28T02:16:20;3.83;;;2.00;;
43088;SDS011;28709;52.030;5.652;2023-12-28T02:18:54;6.20;;;2.25;;
43088;SDS011;28709;52.030;5.652;2023-12-28T02:21:22;4.43;;;1.98;;
43088;SDS011;28709;52.030;5.652;2023-12-28T02:23:50;7.85;;;2.30;;
43088;SDS011;28709;52.030;5.652;2023-12-28T02:26:18;3.63;;;1.98;;
43088;SDS011;28709;52.030;5.652;2023-12-28T02:28:44;6.40;;;2.10;;
43088;SDS011;28709;52.030;5.652;2023-12-28T02:31:13;3.30;;;1.90;;
43088;SDS011;28709;52.030;5.652;2023-12-28T02:33:50;5.18;;;1.90;;
43088;SDS011;28709;52.030;5.652;2023-12-28T02:36:31;5.53;;;2.30;;
43088;SDS011;28709;52.030;5.652;2023-12-28T02:38:59;4.45;;;2.20;;
43088;SDS011;28709;52.030;5.652;2023-12-28T02:41:28;5.55;;;2.50;;
43088;SDS011;28709;52.030;5.652;2023-12-28T02:43:56;5.05;;;2.10;;
43088;SDS011;28709;52.030;5.652;2023-12-28T02:46:21;5.07;;;2.20;;
43088;SDS011;28709;52.030;5.652;2023-12-28T02:48:47;3.47;;;2.00;;
43088;SDS011;28709;52.030;5.652;2023-12-28T02:51:14;8.82;;;2.03;;
43088;SDS011;28709;52.030;5.652;2023-12-28T02:53:41;9.07;;;2.15;;
43088;SDS011;28709;52.030;5.652;2023-12-28T02:56:06;6.68;;;2.22;;
43088;SDS011;28709;52.030;5.652;2023-12-28T02:58:33;5.88;;;2.03;;
43088;SDS011;28709;52.030;5.652;2023-12-28T03:00:58;5.18;;;2.00;;
43088;SDS011;28709;52.030;5.652;2023-12-28T03:03:24;7.18;;;2.22;;
43088;SDS011;28709;52.030;5.652;2023-12-28T03:05:49;3.83;;;1.85;;
43088;SDS011;28709;52.030;5.652;2023-12-28T03:08:15;5.43;;;2.08;;
43088;SDS011;28709;52.030;5.652;2023-12-28T03:10:41;5.63;;;1.70;;
43088;SDS011;28709;52.030;5.652;2023-12-28T03:13:07;8.38;;;2.00;;
43088;SDS011;28709;52.030;5.652;2023-12-28T03:15:32;6.50;;;2.08;;
43088;SDS011;28709;52.030;5.652;2023-12-28T03:17:58;5.60;;;2.10;;
43088;SDS011;28709;52.030;5.652;2023-12-28T03:20:24;5.93;;;1.85;;
43088;SDS011;28709;52.030;5.652;2023-12-28T03:22:49;5.90;;;2.10;;
43088;SDS011;28709;52.030;5.652;2023-12-28T03:25:15;7.20;;;1.90;;
43088;SDS011;28709;52.030;5.652;2023-12-28T03:27:40;4.07;;;1.90;;
43088;SDS011;28709;52.030;5.652;2023-12-28T03:30:06;5.63;;;1.92;;
43088;SDS011;28709;52.030;5.652;2023-12-28T03:32:32;7.57;;;2.08;;
43088;SDS011;28709;52.030;5.652;2023-12-28T03:34:58;6.82;;;1.73;;
43088;SDS011;28709;52.030;5.652;2023-12-28T03:37:24;4.85;;;1.50;;
43088;SDS011;28709;52.030;5.652;2023-12-28T03:39:50;7.43;;;2.63;;
43088;SDS011;28709;52.030;5.652;2023-12-28T03:42:15;6.18;;;1.88;;
43088;SDS011;28709;52.030;5.652;2023-12-28T03:44:41;7.07;;;1.67;;
43088;SDS011;28709;52.030;5.652;2023-12-28T03:47:07;6.18;;;1.83;;
43088;SDS011;28709;52.030;5.652;2023-12-28T03:49:32;7.72;;;1.77;;
43088;SDS011;28709;52.030;5.652;2023-12-28T03:51:58;5.63;;;1.80;;
43088;SDS011;28709;52.030;5.652;2023-12-28T03:54:24;4.10;;;1.77;;
43088;SDS011;28709;52.030;5.652;2023-12-28T03:56:49;6.82;;;2.00;;
43088;SDS011;28709;52.030;5.652;2023-12-28T03:59:15;10.02;;;3.03;;
43088;SDS011;28709;52.030;5.652;2023-12-28T04:01:40;5.00;;;1.73;;
43088;SDS011;28709;52.030;5.652;2023-12-28T04:04:06;7.93;;;1.70;;
43088;SDS011;28709;52.030;5.652;2023-12-28T04:06:32;5.40;;;1.60;;
43088;SDS011;28709;52.030;5.652;2023-12-28T04:08:57;8.00;;;1.80;;
43088;SDS011;28709;52.030;5.652;2023-12-28T04:11:23;5.07;;;1.77;;
43088;SDS011;28709;52.030;5.652;2023-12-28T04:13:49;8.68;;;1.98;;
43088;SDS011;28709;52.030;5.652;2023-12-28T04:16:15;4.95;;;1.75;;
43088;SDS011;28709;52.030;5.652;2023-12-28T04:18:41;9.63;;;1.65;;
43088;SDS011;28709;52.030;5.652;2023-12-28T04:21:08;10.07;;;2.03;;
43088;SDS011;28709;52.030;5.652;2023-12-28T04:23:37;10.00;;;1.88;;
43088;SDS011;28709;52.030;5.652;2023-12-28T04:26:04;9.30;;;2.10;;
43088;SDS011;28709;52.030;5.652;2023-12-28T04:28:30;8.05;;;1.90;;
43088;SDS011;28709;52.030;5.652;2023-12-28T04:30:55;10.88;;;2.08;;
43088;SDS011;28709;52.030;5.652;2023-12-28T04:33:21;8.23;;;2.47;;
43088;SDS011;28709;52.030;5.652;2023-12-28T04:35:47;5.20;;;1.45;;
43088;SDS011;28709;52.030;5.652;2023-12-28T04:38:13;8.18;;;2.25;;
43088;SDS011;28709;52.030;5.652;2023-12-28T04:40:38;9.93;;;1.95;;
43088;SDS011;28709;52.030;5.652;2023-12-28T04:43:04;11.98;;;2.17;;
43088;SDS011;28709;52.030;5.652;2023-12-28T04:45:29;8.55;;;1.70;;
43088;SDS011;28709;52.030;5.652;2023-12-28T04:47:55;10.10;;;2.40;;
43088;SDS011;28709;52.030;5.652;2023-12-28T04:50:21;6.20;;;1.65;;
43088;SDS011;28709;52.030;5.652;2023-12-28T04:52:46;14.93;;;2.00;;
43088;SDS011;28709;52.030;5.652;2023-12-28T04:55:12;18.27;;;3.67;;
43088;SDS011;28709;52.030;5.652;2023-12-28T04:57:40;10.15;;;2.20;;
43088;SDS011;28709;52.030;5.652;2023-12-28T05:00:06;14.00;;;2.38;;
43088;SDS011;28709;52.030;5.652;2023-12-28T05:02:34;12.40;;;2.25;;
43088;SDS011;28709;52.030;5.652;2023-12-28T05:04:59;14.63;;;2.72;;
43088;SDS011;28709;52.030;5.652;2023-12-28T05:07:25;12.73;;;2.08;;
43088;SDS011;28709;52.030;5.652;2023-12-28T05:09:51;14.10;;;3.08;;
43088;SDS011;28709;52.030;5.652;2023-12-28T05:12:17;11.50;;;1.90;;
43088;SDS011;28709;52.030;5.652;2023-12-28T05:14:42;11.70;;;1.70;;
43088;SDS011;28709;52.030;5.652;2023-12-28T05:17:08;14.85;;;2.20;;
43088;SDS011;28709;52.030;5.652;2023-12-28T05:19:33;9.02;;;2.47;;
43088;SDS011;28709;52.030;5.652;2023-12-28T05:21:59;10.38;;;1.92;;
43088;SDS011;28709;52.030;5.652;2023-12-28T05:24:29;11.85;;;1.92;;
43088;SDS011;28709;52.030;5.652;2023-12-28T05:26:55;8.30;;;1.95;;
43088;SDS011;28709;52.030;5.652;2023-12-28T05:29:20;10.05;;;2.78;;
43088;SDS011;28709;52.030;5.652;2023-12-28T05:31:46;12.38;;;1.90;;
43088;SDS011;28709;52.030;5.652;2023-12-28T05:34:11;5.47;;;1.55;;
43088;SDS011;28709;52.030;5.652;2023-12-28T05:36:37;10.38;;;2.00;;
43088;SDS011;28709;52.030;5.652;2023-12-28T05:39:03;15.45;;;2.20;;
43088;SDS011;28709;52.030;5.652;2023-12-28T05:41:29;11.88;;;2.03;;
43088;SDS011;28709;52.030;5.652;2023-12-28T05:43:54;10.15;;;2.30;;
43088;SDS011;28709;52.030;5.652;2023-12-28T05:46:20;7.57;;;1.70;;
43088;SDS011;28709;52.030;5.652;2023-12-28T05:48:45;12.40;;;1.80;;
43088;SDS011;28709;52.030;5.652;2023-12-28T05:51:11;9.15;;;2.05;;
43088;SDS011;28709;52.030;5.652;2023-12-28T05:53:37;16.35;;;2.67;;
43088;SDS011;28709;52.030;5.652;2023-12-28T05:56:03;13.85;;;2.10;;
43088;SDS011;28709;52.030;5.652;2023-12-28T05:58:29;12.70;;;2.30;;
43088;SDS011;28709;52.030;5.652;2023-12-28T06:00:54;8.80;;;1.88;;
43088;SDS011;28709;52.030;5.652;2023-12-28T06:03:20;15.13;;;2.63;;
43088;SDS011;28709;52.030;5.652;2023-12-28T06:05:46;16.85;;;2.83;;
43088;SDS011;28709;52.030;5.652;2023-12-28T06:08:12;15.27;;;2.78;;
43088;SDS011;28709;52.030;5.652;2023-12-28T06:10:38;16.38;;;2.35;;
43088;SDS011;28709;52.030;5.652;2023-12-28T06:13:03;16.17;;;2.63;;
43088;SDS011;28709;52.030;5.652;2023-12-28T06:15:29;9.88;;;2.08;;
43088;SDS011;28709;52.030;5.652;2023-12-28T06:17:55;12.63;;;2.20;;
43088;SDS011;28709;52.030;5.652;2023-12-28T06:20:21;16.80;;;3.67;;
43088;SDS011;28709;52.030;5.652;2023-12-28T06:22:46;12.38;;;2.30;;
43088;SDS011;28709;52.030;5.652;2023-12-28T06:25:14;15.80;;;2.15;;
43088;SDS011;28709;52.030;5.652;2023-12-28T06:27:39;13.32;;;2.28;;
43088;SDS011;28709;52.030;5.652;2023-12-28T06:30:05;13.15;;;2.17;;
43088;SDS011;28709;52.030;5.652;2023-12-28T06:32:31;8.60;;;1.70;;
43088;SDS011;28709;52.030;5.652;2023-12-28T06:34:57;20.13;;;3.65;;
43088;SDS011;28709;52.030;5.652;2023-12-28T06:37:22;17.85;;;2.97;;
43088;SDS011;28709;52.030;5.652;2023-12-28T06:39:48;13.70;;;2.70;;
43088;SDS011;28709;52.030;5.652;2023-12-28T06:42:14;11.13;;;2.50;;
43088;SDS011;28709;52.030;5.652;2023-12-28T06:44:40;18.83;;;2.92;;
43088;SDS011;28709;52.030;5.652;2023-12-28T06:47:05;17.98;;;3.08;;
43088;SDS011;28709;52.030;5.652;2023-12-28T06:49:31;13.00;;;2.22;;
43088;SDS011;28709;52.030;5.652;2023-12-28T06:51:57;18.80;;;2.70;;
43088;SDS011;28709;52.030;5.652;2023-12-28T06:54:22;18.52;;;2.60;;
43088;SDS011;28709;52.030;5.652;2023-12-28T06:56:49;10.75;;;2.55;;
43088;SDS011;28709;52.030;5.652;2023-12-28T06:59:16;15.95;;;2.80;;
43088;SDS011;28709;52.030;5.652;2023-12-28T07:01:42;19.15;;;3.20;;
43088;SDS011;28709;52.030;5.652;2023-12-28T07:04:09;17.25;;;2.60;;
43088;SDS011;28709;52.030;5.652;2023-12-28T07:06:34;16.67;;;3.58;;
43088;SDS011;28709;52.030;5.652;2023-12-28T07:09:00;13.57;;;2.22;;
43088;SDS011;28709;52.030;5.652;2023-12-28T07:11:26;10.85;;;2.33;;
43088;SDS011;28709;52.030;5.652;2023-12-28T07:13:51;15.20;;;3.00;;
43088;SDS011;28709;52.030;5.652;2023-12-28T07:16:18;22.38;;;2.55;;
43088;SDS011;28709;52.030;5.652;2023-12-28T07:18:43;16.70;;;2.53;;
43088;SDS011;28709;52.030;5.652;2023-12-28T07:21:09;18.17;;;2.65;;
43088;SDS011;28709;52.030;5.652;2023-12-28T07:23:35;18.00;;;3.10;;
43088;SDS011;28709;52.030;5.652;2023-12-28T07:26:01;18.63;;;3.80;;
43088;SDS011;28709;52.030;5.652;2023-12-28T07:28:27;15.40;;;3.05;;
43088;SDS011;28709;52.030;5.652;2023-12-28T07:30:53;22.08;;;3.03;;
43088;SDS011;28709;52.030;5.652;2023-12-28T07:33:18;13.55;;;2.60;;
43088;SDS011;28709;52.030;5.652;2023-12-28T07:35:44;14.13;;;3.08;;
43088;SDS011;28709;52.030;5.652;2023-12-28T07:38:10;17.40;;;3.10;;
43088;SDS011;28709;52.030;5.652;2023-12-28T07:40:35;14.20;;;2.90;;
43088;SDS011;28709;52.030;5.652;2023-12-28T07:43:01;9.68;;;2.45;;
43088;SDS011;28709;52.030;5.652;2023-12-28T07:45:27;15.43;;;2.42;;
43088;SDS011;28709;52.030;5.652;2023-12-28T07:47:52;18.80;;;3.20;;
43088;SDS011;28709;52.030;5.652;2023-12-28T07:50:18;13.05;;;2.15;;
43088;SDS011;28709;52.030;5.652;2023-12-28T07:52:44;17.08;;;2.65;;
43088;SDS011;28709;52.030;5.652;2023-12-28T07:55:11;22.67;;;4.05;;
43088;SDS011;28709;52.030;5.652;2023-12-28T07:57:37;20.48;;;2.63;;
43088;SDS011;28709;52.030;5.652;2023-12-28T08:00:03;19.23;;;3.40;;
43088;SDS011;28709;52.030;5.652;2023-12-28T08:02:29;16.05;;;2.95;;
43088;SDS011;28709;52.030;5.652;2023-12-28T08:04:55;14.68;;;2.35;;
43088;SDS011;28709;52.030;5.652;2023-12-28T08:07:20;17.48;;;2.75;;
43088;SDS011;28709;52.030;5.652;2023-12-28T08:09:46;18.70;;;3.30;;
43088;SDS011;28709;52.030;5.652;2023-12-28T08:12:11;13.85;;;3.10;;
43088;SDS011;28709;52.030;5.652;2023-12-28T08:14:37;26.52;;;3.83;;
43088;SDS011;28709;52.030;5.652;2023-12-28T08:17:03;21.95;;;3.67;;
43088;SDS011;28709;52.030;5.652;2023-12-28T08:19:28;28.85;;;6.15;;
43088;SDS011;28709;52.030;5.652;2023-12-28T08:21:54;14.15;;;3.45;;
43088;SDS011;28709;52.030;5.652;2023-12-28T08:24:20;20.95;;;5.75;;
43088;SDS011;28709;52.030;5.652;2023-12-28T08:26:46;30.52;;;6.28;;
43088;SDS011;28709;52.030;5.652;2023-12-28T08:29:12;17.48;;;3.47;;
43088;SDS011;28709;52.030;5.652;2023-12-28T08:31:38;22.02;;;3.97;;
43088;SDS011;28709;52.030;5.652;2023-12-28T08:34:03;23.95;;;3.78;;
43088;SDS011;28709;52.030;5.652;2023-12-28T08:36:29;16.00;;;3.63;;
43088;SDS011;28709;52.030;5.652;2023-12-28T08:38:54;24.73;;;3.45;;
43088;SDS011;28709;52.030;5.652;2023-12-28T08:41:23;20.42;;;3.58;;
43088;SDS011;28709;52.030;5.652;2023-12-28T08:43:49;19.02;;;2.75;;
43088;SDS011;28709;52.030;5.652;2023-12-28T08:46:16;23.73;;;3.80;;
43088;SDS011;28709;52.030;5.652;2023-12-28T08:48:42;16.48;;;2.97;;
43088;SDS011;28709;52.030;5.652;2023-12-28T08:51:09;19.73;;;3.47;;
43088;SDS011;28709;52.030;5.652;2023-12-28T08:53:36;23.25;;;3.30;;
43088;SDS011;28709;52.030;5.652;2023-12-28T08:56:02;17.10;;;3.17;;
43088;SDS011;28709;52.030;5.652;2023-12-28T08:58:37;16.33;;;3.28;;
43088;SDS011;28709;52.030;5.652;2023-12-28T09:01:03;13.20;;;2.55;;
43088;SDS011;28709;52.030;5.652;2023-12-28T09:03:29;19.02;;;2.88;;
43088;SDS011;28709;52.030;5.652;2023-12-28T09:05:54;14.73;;;3.22;;
43088;SDS011;28709;52.030;5.652;2023-12-28T09:08:20;25.55;;;5.68;;
43088;SDS011;28709;52.030;5.652;2023-12-28T09:10:45;19.98;;;3.67;;
43088;SDS011;28709;52.030;5.652;2023-12-28T09:13:14;16.05;;;3.95;;
43088;SDS011;28709;52.030;5.652;2023-12-28T09:15:42;16.67;;;2.97;;
43088;SDS011;28709;52.030;5.652;2023-12-28T09:18:07;12.27;;;2.38;;
43088;SDS011;28709;52.030;5.652;2023-12-28T09:20:33;20.52;;;3.03;;
43088;SDS011;28709;52.030;5.652;2023-12-28T09:23:00;14.32;;;2.47;;
43088;SDS011;28709;52.030;5.652;2023-12-28T09:25:26;18.63;;;2.90;;
43088;SDS011;28709;52.030;5.652;2023-12-28T09:27:51;22.13;;;3.20;;
43088;SDS011;28709;52.030;5.652;2023-12-28T09:30:18;17.85;;;3.50;;
43088;SDS011;28709;52.030;5.652;2023-12-28T09:32:44;18.20;;;2.67;;
43088;SDS011;28709;52.030;5.652;2023-12-28T09:35:10;14.85;;;3.33;;
43088;SDS011;28709;52.030;5.652;2023-12-28T09:37:35;17.40;;;3.42;;
43088;SDS011;28709;52.030;5.652;2023-12-28T09:40:01;20.27;;;2.65;;
43088;SDS011;28709;52.030;5.652;2023-12-28T09:42:32;17.58;;;2.50;;
43088;SDS011;28709;52.030;5.652;2023-12-28T09:45:25;18.52;;;3.17;;
43088;SDS011;28709;52.030;5.652;2023-12-28T09:47:50;18.20;;;2.47;;
43088;SDS011;28709;52.030;5.652;2023-12-28T09:50:17;23.50;;;3.28;;
43088;SDS011;28709;52.030;5.652;2023-12-28T09:52:48;21.65;;;3.25;;
43088;SDS011;28709;52.030;5.652;2023-12-28T09:55:14;22.27;;;2.88;;
43088;SDS011;28709;52.030;5.652;2023-12-28T09:57:39;14.57;;;2.50;;
43088;SDS011;28709;52.030;5.652;2023-12-28T10:00:06;19.55;;;2.78;;
43088;SDS011;28709;52.030;5.652;2023-12-28T10:02:32;14.00;;;2.65;;
43088;SDS011;28709;52.030;5.652;2023-12-28T10:04:59;18.33;;;3.20;;
43088;SDS011;28709;52.030;5.652;2023-12-28T10:07:24;15.35;;;2.97;;
43088;SDS011;28709;52.030;5.652;2023-12-28T10:09:52;22.77;;;3.65;;
43088;SDS011;28709;52.030;5.652;2023-12-28T10:12:17;19.30;;;2.92;;
43088;SDS011;28709;52.030;5.652;2023-12-28T10:14:43;18.95;;;2.97;;
43088;SDS011;28709;52.030;5.652;2023-12-28T10:17:08;13.45;;;2.10;;
43088;SDS011;28709;52.030;5.652;2023-12-28T10:19:34;12.68;;;2.17;;
43088;SDS011;28709;52.030;5.652;2023-12-28T10:22:01;15.63;;;2.72;;
43088;SDS011;28709;52.030;5.652;2023-12-28T10:24:27;19.38;;;3.28;;
43088;SDS011;28709;52.030;5.652;2023-12-28T10:26:53;20.45;;;3.15;;
43088;SDS011;28709;52.030;5.652;2023-12-28T10:29:18;17.00;;;3.22;;
43088;SDS011;28709;52.030;5.652;2023-12-28T10:31:44;19.98;;;3.05;;
43088;SDS011;28709;52.030;5.652;2023-12-28T10:34:14;17.17;;;4.22;;
43088;SDS011;28709;52.030;5.652;2023-12-28T10:36:39;12.70;;;2.35;;
43088;SDS011;28709;52.030;5.652;2023-12-28T10:39:07;21.15;;;3.08;;
43088;SDS011;28709;52.030;5.652;2023-12-28T10:41:37;15.15;;;2.70;;
43088;SDS011;28709;52.030;5.652;2023-12-28T10:44:06;22.60;;;3.85;;
43088;SDS011;28709;52.030;5.652;2023-12-28T10:46:33;24.23;;;3.95;;
43088;SDS011;28709;52.030;5.652;2023-12-28T10:49:05;15.35;;;3.00;;
43088;SDS011;28709;52.030;5.652;2023-12-28T10:51:35;19.52;;;2.53;;
43088;SDS011;28709;52.030;5.652;2023-12-28T10:54:52;20.95;;;3.03;;
43088;SDS011;28709;52.030;5.652;2023-12-28T10:57:26;18.30;;;3.28;;
43088;SDS011;28709;52.030;5.652;2023-12-28T11:00:04;20.52;;;3.17;;
43088;SDS011;28709;52.030;5.652;2023-12-28T11:02:42;22.73;;;3.08;;
43088;SDS011;28709;52.030;5.652;2023-12-28T11:05:13;16.63;;;2.97;;
43088;SDS011;28709;52.030;5.652;2023-12-28T11:07:40;16.88;;;3.88;;
43088;SDS011;28709;52.030;5.652;2023-12-28T11:10:08;16.88;;;3.03;;
43088;SDS011;28709;52.030;5.652;2023-12-28T11:12:35;18.48;;;3.10;;
43088;SDS011;28709;52.030;5.652;2023-12-28T11:15:03;18.90;;;3.00;;
43088;SDS011;28709;52.030;5.652;2023-12-28T11:17:33;23.23;;;2.88;;
43088;SDS011;28709;52.030;5.652;2023-12-28T11:20:01;15.98;;;2.90;;
43088;SDS011;28709;52.030;5.652;2023-12-28T11:22:29;20.17;;;3.35;;
43088;SDS011;28709;52.030;5.652;2023-12-28T11:24:56;21.00;;;3.63;;
43088;SDS011;28709;52.030;5.652;2023-12-28T11:27:21;16.25;;;3.08;;
43088;SDS011;28709;52.030;5.652;2023-12-28T11:29:48;20.45;;;3.22;;
43088;SDS011;28709;52.030;5.652;2023-12-28T11:32:14;21.15;;;3.70;;
43088;SDS011;28709;52.030;5.652;2023-12-28T11:34:40;21.23;;;3.08;;
43088;SDS011;28709;52.030;5.652;2023-12-28T11:37:12;17.60;;;2.78;;
43088;SDS011;28709;52.030;5.652;2023-12-28T11:39:43;19.42;;;4.10;;
43088;SDS011;28709;52.030;5.652;2023-12-28T11:42:09;22.58;;;3.30;;
43088;SDS011;28709;52.030;5.652;2023-12-28T11:44:40;18.60;;;2.92;;
43088;SDS011;28709;52.030;5.652;2023-12-28T11:47:11;16.98;;;3.75;;
43088;SDS011;28709;52.030;5.652;2023-12-28T11:49:37;19.20;;;2.92;;
43088;SDS011;28709;52.030;5.652;2023-12-28T11:52:05;27.17;;;3.45;;
43088;SDS011;28709;52.030;5.652;2023-12-28T11:54:31;24.15;;;4.22;;
43088;SDS011;28709;52.030;5.652;2023-12-28T11:56:57;23.17;;;4.40;;
43088;SDS011;28709;52.030;5.652;2023-12-28T11:59:23;17.35;;;3.20;;
43088;SDS011;28709;52.030;5.652;2023-12-28T12:01:49;23.80;;;4.63;;
43088;SDS011;28709;52.030;5.652;2023-12-28T12:04:18;18.08;;;3.35;;
43088;SDS011;28709;52.030;5.652;2023-12-28T12:06:45;23.75;;;3.15;;
43088;SDS011;28709;52.030;5.652;2023-12-28T12:09:11;16.80;;;2.90;;
43088;SDS011;28709;52.030;5.652;2023-12-28T12:11:37;22.58;;;3.72;;
43088;SDS011;28709;52.030;5.652;2023-12-28T12:14:07;18.40;;;2.75;;
43088;SDS011;28709;52.030;5.652;2023-12-28T12:16:35;16.90;;;3.00;;
43088;SDS011;28709;52.030;5.652;2023-12-28T12:19:02;17.55;;;2.85;;
43088;SDS011;28709;52.030;5.652;2023-12-28T12:21:28;14.10;;;2.80;;
43088;SDS011;28709;52.030;5.652;2023-12-28T12:23:54;20.98;;;3.97;;
43088;SDS011;28709;52.030;5.652;2023-12-28T12:26:20;15.00;;;2.58;;
43088;SDS011;28709;52.030;5.652;2023-12-28T12:28:46;19.63;;;3.13;;
43088;SDS011;28709;52.030;5.652;2023-12-28T12:31:13;20.10;;;3.33;;
43088;SDS011;28709;52.030;5.652;2023-12-28T12:33:39;14.68;;;2.95;;
43088;SDS011;28709;52.030;5.652;2023-12-28T12:36:05;14.65;;;2.47;;
43088;SDS011;28709;52.030;5.652;2023-12-28T12:38:33;15.52;;;2.72;;
43088;SDS011;28709;52.030;5.652;2023-12-28T12:40:59;19.58;;;3.92;;
43088;SDS011;28709;52.030;5.652;2023-12-28T12:43:25;26.95;;;9.52;;
43088;SDS011;28709;52.030;5.652;2023-12-28T12:45:52;36.35;;;14.20;;
43088;SDS011;28709;52.030;5.652;2023-12-28T12:48:18;22.63;;;5.15;;
43088;SDS011;28709;52.030;5.652;2023-12-28T12:50:44;36.28;;;10.85;;
43088;SDS011;28709;52.030;5.652;2023-12-28T12:53:10;27.85;;;6.32;;
43088;SDS011;28709;52.030;5.652;2023-12-28T12:55:36;22.20;;;5.65;;
43088;SDS011;28709;52.030;5.652;2023-12-28T12:58:04;18.08;;;3.45;;
43088;SDS011;28709;52.030;5.652;2023-12-28T13:00:34;17.98;;;2.88;;
43088;SDS011;28709;52.030;5.652;2023-12-28T13:03:00;18.15;;;3.45;;
43088;SDS011;28709;52.030;5.652;2023-12-28T13:05:26;19.05;;;4.38;;
43088;SDS011;28709;52.030;5.652;2023-12-28T13:07:54;18.67;;;3.28;;
43088;SDS011;28709;52.030;5.652;2023-12-28T13:10:19;18.77;;;4.10;;
43088;SDS011;28709;52.030;5.652;2023-12-28T13:12:45;27.73;;;3.53;;
43088;SDS011;28709;52.030;5.652;2023-12-28T13:15:11;12.52;;;2.38;;
43088;SDS011;28709;52.030;5.652;2023-12-28T13:17:37;13.63;;;2.70;;
43088;SDS011;28709;52.030;5.652;2023-12-28T13:20:03;21.15;;;3.15;;
43088;SDS011;28709;52.030;5.652;2023-12-28T13:22:33;23.58;;;3.33;;
43088;SDS011;28709;52.030;5.652;2023-12-28T13:24:59;19.88;;;3.35;;
43088;SDS011;28709;52.030;5.652;2023-12-28T13:27:26;22.02;;;3.00;;
43088;SDS011;28709;52.030;5.652;2023-12-28T13:29:52;19.23;;;3.13;;
43088;SDS011;28709;52.030;5.652;2023-12-28T13:32:17;16.33;;;3.10;;
43088;SDS011;28709;52.030;5.652;2023-12-28T13:34:43;15.80;;;3.78;;
43088;SDS011;28709;52.030;5.652;2023-12-28T13:37:08;19.15;;;3.38;;
43088;SDS011;28709;52.030;5.652;2023-12-28T13:39:34;19.35;;;3.05;;
43088;SDS011;28709;52.030;5.652;2023-12-28T13:42:04;13.93;;;3.42;;
43088;SDS011;28709;52.030;5.652;2023-12-28T13:44:32;17.23;;;2.90;;
43088;SDS011;28709;52.030;5.652;2023-12-28T13:46:58;14.82;;;2.58;;
43088;SDS011;28709;52.030;5.652;2023-12-28T13:49:24;20.40;;;3.13;;
43088;SDS011;28709;52.030;5.652;2023-12-28T13:51:51;23.70;;;3.90;;
43088;SDS011;28709;52.030;5.652;2023-12-28T13:54:16;41.40;;;5.88;;
43088;SDS011;28709;52.030;5.652;2023-12-28T13:56:44;21.08;;;3.40;;
43088;SDS011;28709;52.030;5.652;2023-12-28T13:59:10;25.73;;;3.85;;
43088;SDS011;28709;52.030;5.652;2023-12-28T14:01:36;17.77;;;3.08;;
43088;SDS011;28709;52.030;5.652;2023-12-28T14:04:03;18.35;;;2.92;;
43088;SDS011;28709;52.030;5.652;2023-12-28T14:06:29;14.07;;;2.65;;
43088;SDS011;28709;52.030;5.652;2023-12-28T14:08:55;17.08;;;3.05;;
43088;SDS011;28709;52.030;5.652;2023-12-28T14:11:22;22.38;;;3.97;;
43088;SDS011;28709;52.030;5.652;2023-12-28T14:13:50;17.58;;;2.70;;
43088;SDS011;28709;52.030;5.652;2023-12-28T14:16:16;18.90;;;3.00;;
43088;SDS011;28709;52.030;5.652;2023-12-28T14:18:42;18.30;;;2.85;;
43088;SDS011;28709;52.030;5.652;2023-12-28T14:21:10;21.13;;;3.13;;
43088;SDS011;28709;52.030;5.652;2023-12-28T14:23:38;18.83;;;3.08;;
43088;SDS011;28709;52.030;5.652;2023-12-28T14:26:07;16.08;;;3.28;;
43088;SDS011;28709;52.030;5.652;2023-12-28T14:28:38;22.38;;;4.18;;
43088;SDS011;28709;52.030;5.652;2023-12-28T14:31:04;24.80;;;5.40;;
43088;SDS011;28709;52.030;5.652;2023-12-28T14:33:30;26.95;;;7.22;;